Time;durP1;ratioP1;P1;durP2;ratioP2;P2;SDS_P1;SDS_P2;PMS_P1;PMS_P2;Temp;Humidity;BMP_temperature;BMP_pressure;BME280_temperature;BME280_humidity;BME280_pressure;Samples;Min_cycle;Max_cycle;Signal;HPM_P1;HPM_P2
2023/12/02 00:01:52;;;;;;;2.57;2.40;;;4.70;40.60;;;;;;5032245;28;20419;-57
2023/12/02 00:04:19;;;;;;;1.52;1.33;;;4.70;40.50;;;;;;5032471;28;20212;-53
2023/12/02 00:06:44;;;;;;;0.93;0.77;;;4.70;40.60;;;;;;5032300;28;20181;-50
2023/12/02 00:09:10;;;;;;;3.83;1.03;;;4.70;40.80;;;;;;5032497;28;20197;-56
2023/12/02 00:11:36;;;;;;;1.90;1.80;;;4.70;40.60;;;;;;5032358;28;20177;-51
2023/12/02 00:14:02;;;;;;;1.73;1.23;;;4.70;40.70;;;;;;5050806;28;20572;-51
2023/12/02 00:16:28;;;;;;;1.40;1.30;;;4.70;40.80;;;;;;5051949;28;20422;-54
2023/12/02 00:18:54;;;;;;;1.03;0.93;;;4.70;40.70;;;;;;5050862;28;20821;-55
2023/12/02 00:21:20;;;;;;;5.35;2.25;;;4.80;40.60;;;;;;5052063;28;20181;-49
2023/12/02 00:23:46;;;;;;;3.33;3.03;;;4.80;40.50;;;;;;5052059;28;20557;-54
2023/12/02 00:26:12;;;;;;;1.40;1.30;;;4.70;40.60;;;;;;5051955;28;20173;-57
2023/12/02 00:28:37;;;;;;;4.93;3.47;;;4.80;40.50;;;;;;5051991;28;20412;-52
2023/12/02 00:31:03;;;;;;;2.07;1.50;;;4.80;41.10;;;;;;5051891;28;20645;-52
2023/12/02 00:33:29;;;;;;;9.35;2.90;;;4.70;40.40;;;;;;5051680;28;20189;-58
2023/12/02 00:35:56;;;;;;;3.25;1.67;;;4.70;40.40;;;;;;5052111;28;20184;-53
2023/12/02 00:38:22;;;;;;;1.60;1.50;;;4.70;40.40;;;;;;5051941;28;20509;-50
2023/12/02 00:40:48;;;;;;;2.10;1.38;;;4.70;40.30;;;;;;5051683;28;20180;-52
2023/12/02 00:43:13;;;;;;;1.37;1.10;;;4.70;40.40;;;;;;5051109;28;20272;-56
2023/12/02 00:45:40;;;;;;;2.93;2.63;;;4.70;40.50;;;;;;5051601;28;20642;-51
2023/12/02 00:48:05;;;;;;;3.80;1.65;;;4.70;40.40;;;;;;5051709;28;20650;-57
2023/12/02 00:50:31;;;;;;;1.90;1.80;;;4.70;40.40;;;;;;5051788;28;20216;-50
2023/12/02 00:52:57;;;;;;;2.07;1.60;;;4.70;40.40;;;;;;5051586;28;20439;-51
2023/12/02 00:55:23;;;;;;;2.47;2.07;;;4.60;40.10;;;;;;5051470;28;20209;-57
2023/12/02 00:57:49;;;;;;;4.22;1.60;;;4.60;40.20;;;;;;5051688;28;20180;-57
2023/12/02 01:00:16;;;;;;;3.15;2.00;;;4.60;40.30;;;;;;5051513;28;20173;-49
2023/12/02 01:02:42;;;;;;;2.65;1.10;;;4.60;40.40;;;;;;5051675;28;20190;-56
2023/12/02 01:05:08;;;;;;;2.05;1.95;;;4.60;40.40;;;;;;5051719;28;20200;-57
2023/12/02 01:07:34;;;;;;;1.33;1.00;;;4.60;40.50;;;;;;5051552;28;20181;-52
2023/12/02 01:10:00;;;;;;;1.70;1.60;;;4.60;40.40;;;;;;5051413;28;20674;-54
2023/12/02 01:12:26;;;;;;;3.83;1.23;;;4.60;40.30;;;;;;5051371;28;20794;-54
2023/12/02 01:14:52;;;;;;;2.87;2.63;;;4.60;40.40;;;;;;5051315;28;20894;-53
2023/12/02 01:17:18;;;;;;;2.78;1.38;;;4.60;40.50;;;;;;5051347;28;20408;-57
2023/12/02 01:19:47;;;;;;;3.90;2.87;;;4.60;40.50;;;;;;5051495;28;20606;-51
2023/12/02 01:22:12;;;;;;;3.53;3.22;;;4.70;40.40;;;;;;5051207;28;20929;-50
2023/12/02 01:24:38;;;;;;;1.57;1.43;;;4.70;40.60;;;;;;5051402;28;20231;-55
2023/12/02 01:27:04;;;;;;;2.70;2.20;;;4.70;40.60;;;;;;5051204;28;20188;-57
2023/12/02 01:29:30;;;;;;;5.13;2.63;;;4.70;40.60;;;;;;5051322;28;20474;-51
2023/12/02 01:31:56;;;;;;;1.63;1.50;;;4.70;40.60;;;;;;5051411;28;20181;-53
2023/12/02 01:34:21;;;;;;;3.00;1.57;;;4.70;40.60;;;;;;5051228;28;20254;-54
2023/12/02 01:36:47;;;;;;;1.13;1.03;;;4.70;40.70;;;;;;5051140;28;20451;-51
2023/12/02 01:39:13;;;;;;;2.20;2.00;;;3.80;40.10;;;;;;5023329;28;20173;-51
2023/12/02 01:41:39;;;;;;;1.77;0.87;;;4.70;40.50;;;;;;5031462;28;20170;-56
2023/12/02 01:44:05;;;;;;;2.15;1.20;;;4.70;40.60;;;;;;5031127;28;20798;-54
2023/12/02 01:46:31;;;;;;;2.00;1.90;;;4.70;40.60;;;;;;5031168;28;20185;-50
2023/12/02 01:48:59;;;;;;;2.90;2.03;;;4.70;40.60;;;;;;5031289;28;20181;-55
2023/12/02 01:51:26;;;;;;;2.55;2.10;;;4.70;40.50;;;;;;5031230;28;20408;-56
2023/12/02 01:53:52;;;;;;;3.28;2.63;;;4.70;40.60;;;;;;5031727;28;20325;-51
2023/12/02 01:56:19;;;;;;;3.20;3.00;;;4.70;40.40;;;;;;5034775;28;20249;-56
2023/12/02 01:58:46;;;;;;;8.13;3.28;;;4.70;40.50;;;;;;5034809;28;20178;-51
2023/12/02 02:01:12;;;;;;;7.18;2.30;;;4.60;40.40;;;;;;5034676;28;20174;-49
2023/12/02 02:03:38;;;;;;;1.87;1.30;;;4.60;40.60;;;;;;5034704;28;20271;-55
2023/12/02 02:06:04;;;;;;;1.10;0.97;;;4.60;40.60;;;;;;5034674;28;20641;-50
2023/12/02 02:08:30;;;;;;;2.60;2.00;;;4.60;40.60;;;;;;5034691;28;20404;-53
2023/12/02 02:10:57;;;;;;;1.00;0.87;;;4.70;40.60;;;;;;5034625;28;20409;-55
2023/12/02 02:13:23;;;;;;;2.55;1.13;;;4.60;40.20;;;;;;5034481;28;20186;-50
2023/12/02 02:15:48;;;;;;;1.40;0.70;;;4.60;40.30;;;;;;5034159;28;20217;-50
2023/12/02 02:18:14;;;;;;;3.80;1.67;;;4.60;40.40;;;;;;5034515;28;20206;-52
2023/12/02 02:20:40;;;;;;;3.70;2.90;;;4.60;40.20;;;;;;5034279;28;20169;-51
2023/12/02 02:23:05;;;;;;;2.70;1.40;;;4.60;40.10;;;;;;5034468;28;20197;-49
2023/12/02 02:25:31;;;;;;;1.83;0.80;;;4.60;40.10;;;;;;5034214;28;20173;-57
2023/12/02 02:27:57;;;;;;;2.50;2.40;;;4.60;40.20;;;;;;5034283;28;20181;-50
2023/12/02 02:30:24;;;;;;;3.30;1.40;;;4.60;40.00;;;;;;5034130;28;20173;-49
2023/12/02 02:32:50;;;;;;;0.98;0.77;;;4.60;39.90;;;;;;5034058;28;20680;-55
2023/12/02 02:35:16;;;;;;;3.47;1.93;;;4.50;40.00;;;;;;5034080;28;20209;-53
2023/12/02 02:37:42;;;;;;;1.65;1.55;;;4.50;40.20;;;;;;5034186;28;20405;-49
2023/12/02 02:40:08;;;;;;;3.70;2.57;;;4.50;40.20;;;;;;5034040;28;20670;-52
2023/12/02 02:42:34;;;;;;;2.85;2.58;;;4.50;40.20;;;;;;5033859;28;20760;-57
2023/12/02 02:44:59;;;;;;;6.07;1.07;;;4.50;40.30;;;;;;5033912;28;20181;-51
2023/12/02 02:47:25;;;;;;;1.00;0.90;;;4.50;40.20;;;;;;5033920;28;20177;-53
2023/12/02 02:49:51;;;;;;;2.33;2.20;;;4.50;40.40;;;;;;5033978;28;20178;-57
2023/12/02 02:52:17;;;;;;;2.27;1.97;;;4.50;40.30;;;;;;5033861;28;20205;-50
2023/12/02 02:54:43;;;;;;;2.45;0.98;;;4.50;40.20;;;;;;5033822;28;20463;-52
2023/12/02 02:57:09;;;;;;;0.90;0.67;;;4.50;40.20;;;;;;5033773;28;20190;-52
2023/12/02 02:59:35;;;;;;;3.83;3.28;;;4.50;40.20;;;;;;5033678;28;20416;-51
2023/12/02 03:02:00;;;;;;;2.07;1.87;;;4.50;40.30;;;;;;5033518;28;20177;-54
2023/12/02 03:04:26;;;;;;;8.37;3.77;;;4.50;40.30;;;;;;5033621;28;20221;-55
2023/12/02 03:06:52;;;;;;;1.10;0.70;;;4.50;40.30;;;;;;5032754;28;20178;-49
2023/12/02 03:09:18;;;;;;;1.60;1.47;;;4.50;40.20;;;;;;5033490;28;20178;-54
2023/12/02 03:11:45;;;;;;;3.03;2.83;;;4.40;40.20;;;;;;5033483;28;20667;-52
2023/12/02 03:14:11;;;;;;;6.97;4.47;;;4.50;40.30;;;;;;5036182;28;20505;-49
2023/12/02 03:16:37;;;;;;;3.22;1.27;;;4.50;40.30;;;;;;5053122;28;20655;-54
2023/12/02 03:19:03;;;;;;;3.33;1.90;;;4.50;40.20;;;;;;5053362;28;20208;-49
2023/12/02 03:21:29;;;;;;;14.43;5.30;;;4.50;40.10;;;;;;5053297;28;20268;-53
2023/12/02 03:23:54;;;;;;;2.83;2.53;;;4.50;40.20;;;;;;5053006;28;20200;-51
2023/12/02 03:26:20;;;;;;;3.40;3.10;;;4.50;40.00;;;;;;5052848;28;20178;-48
2023/12/02 03:28:46;;;;;;;1.10;1.00;;;4.50;40.00;;;;;;5053006;28;20169;-51
2023/12/02 03:31:12;;;;;;;3.47;3.17;;;4.50;40.20;;;;;;5052917;28;20166;-54
2023/12/02 03:33:38;;;;;;;3.90;3.30;;;4.50;40.20;;;;;;5052839;28;20189;-51
2023/12/02 03:36:04;;;;;;;7.83;5.80;;;4.50;40.10;;;;;;5052758;28;20654;-48
2023/12/02 03:38:29;;;;;;;2.58;1.00;;;4.40;39.90;;;;;;5052782;28;20404;-52
2023/12/02 03:40:55;;;;;;;2.87;1.90;;;4.40;40.00;;;;;;5052604;28;20235;-56
2023/12/02 03:43:21;;;;;;;5.33;4.93;;;4.40;40.00;;;;;;5052713;28;20213;-50
2023/12/02 03:45:46;;;;;;;5.23;3.90;;;4.40;39.90;;;;;;5052643;28;20252;-57
2023/12/02 03:48:12;;;;;;;2.67;2.47;;;4.40;39.90;;;;;;5052738;28;20639;-57
2023/12/02 03:50:38;;;;;;;4.47;4.03;;;4.30;40.00;;;;;;5052568;28;20169;-50
2023/12/02 03:53:04;;;;;;;0.90;0.73;;;4.40;40.20;;;;;;5052384;28;20209;-57
2023/12/02 03:55:30;;;;;;;6.97;2.80;;;4.30;40.10;;;;;;5052224;28;20200;-49
2023/12/02 03:57:55;;;;;;;1.33;0.87;;;4.40;40.20;;;;;;5052439;28;20585;-50
2023/12/02 04:00:21;;;;;;;5.23;3.13;;;4.30;40.20;;;;;;5052475;28;20174;-58
2023/12/02 04:02:47;;;;;;;1.67;1.23;;;4.30;40.30;;;;;;5052312;28;20185;-58
2023/12/02 04:05:15;;;;;;;3.33;3.13;;;4.40;40.20;;;;;;5052139;28;20183;-51
2023/12/02 04:07:42;;;;;;;0.90;0.65;;;4.40;40.00;;;;;;5052293;28;20185;-50
2023/12/02 04:10:08;;;;;;;2.55;2.35;;;4.30;40.10;;;;;;5052230;28;20186;-56
2023/12/02 04:12:34;;;;;;;2.05;1.80;;;4.30;40.10;;;;;;5052216;28;20204;-51
2023/12/02 04:15:00;;;;;;;1.60;1.50;;;4.30;40.20;;;;;;5052188;28;20196;-49
2023/12/02 04:17:26;;;;;;;3.95;2.88;;;4.30;40.00;;;;;;5051213;28;20215;-56
2023/12/02 04:19:52;;;;;;;1.90;1.80;;;4.20;39.90;;;;;;5052105;28;20260;-54
2023/12/02 04:22:19;;;;;;;4.30;3.83;;;4.20;40.00;;;;;;5051739;28;20729;-51
2023/12/02 04:24:45;;;;;;;6.97;1.90;;;4.20;40.10;;;;;;5052049;28;20181;-48
2023/12/02 04:27:11;;;;;;;7.53;4.00;;;4.20;40.30;;;;;;5051822;28;20628;-58
2023/12/02 04:29:41;;;;;;;1.63;1.13;;;4.30;40.30;;;;;;5051989;28;20177;-57
2023/12/02 04:32:08;;;;;;;3.75;2.33;;;4.30;40.30;;;;;;5051781;28;20173;-48
2023/12/02 04:34:34;;;;;;;4.32;3.45;;;4.30;40.20;;;;;;5051815;28;20235;-56
2023/12/02 04:37:01;;;;;;;2.40;2.22;;;4.30;40.20;;;;;;5051580;28;20173;-57
2023/12/02 04:39:27;;;;;;;5.60;4.40;;;4.30;40.40;;;;;;5051897;28;20173;-51
2023/12/02 04:41:53;;;;;;;4.93;3.00;;;4.30;40.30;;;;;;5051303;28;20165;-49
2023/12/02 04:44:20;;;;;;;1.97;1.87;;;4.30;41.10;;;;;;5031930;28;20600;-52
2023/12/02 04:46:45;;;;;;;3.95;1.95;;;4.30;40.40;;;;;;5031794;28;20504;-50
2023/12/02 04:49:12;;;;;;;5.50;3.97;;;4.30;40.40;;;;;;5031785;28;20268;-55
2023/12/02 04:51:38;;;;;;;2.05;1.90;;;4.30;40.40;;;;;;5031860;28;20514;-56
2023/12/02 04:54:04;;;;;;;4.55;2.30;;;4.30;40.30;;;;;;5031660;28;20217;-51
2023/12/02 04:56:30;;;;;;;1.43;1.13;;;4.30;40.40;;;;;;5031644;28;20170;-58
2023/12/02 04:58:56;;;;;;;2.40;1.90;;;4.30;40.40;;;;;;5031729;28;20539;-56
2023/12/02 05:01:22;;;;;;;4.23;3.93;;;4.30;40.20;;;;;;5031751;28;20480;-51
2023/12/02 05:03:48;;;;;;;7.30;2.85;;;4.30;40.40;;;;;;5031669;28;20436;-51
2023/12/02 05:06:15;;;;;;;9.13;3.23;;;4.30;40.40;;;;;;5031511;28;20687;-57
2023/12/02 05:08:41;;;;;;;2.75;1.83;;;4.30;40.30;;;;;;5031688;28;20405;-50
2023/12/02 05:11:07;;;;;;;2.75;2.55;;;4.20;40.10;;;;;;5031516;28;20181;-50
2023/12/02 05:13:33;;;;;;;1.75;1.63;;;4.20;40.10;;;;;;5031490;28;20212;-57
2023/12/02 05:15:59;;;;;;;4.30;3.47;;;4.20;40.20;;;;;;5031368;28;20679;-55
2023/12/02 05:18:25;;;;;;;2.60;2.40;;;4.20;40.30;;;;;;5031615;28;20423;-50
2023/12/02 05:20:50;;;;;;;2.37;2.17;;;4.20;40.20;;;;;;5031345;28;20173;-53
2023/12/02 05:23:16;;;;;;;5.10;1.40;;;4.10;40.30;;;;;;5031392;28;20233;-56
2023/12/02 05:25:42;;;;;;;6.47;3.37;;;4.10;40.30;;;;;;5031323;28;20540;-53
2023/12/02 05:28:07;;;;;;;2.10;1.93;;;4.10;40.90;;;;;;5031646;28;20174;-51
2023/12/02 05:30:34;;;;;;;3.87;2.97;;;4.10;40.40;;;;;;5034866;28;20231;-53
2023/12/02 05:33:00;;;;;;;2.60;1.13;;;4.00;40.30;;;;;;5035192;28;20198;-54
2023/12/02 05:35:26;;;;;;;1.93;1.83;;;4.00;40.40;;;;;;5034934;28;20275;-50
2023/12/02 05:37:52;;;;;;;1.77;1.37;;;4.00;40.30;;;;;;5035299;28;20416;-52
2023/12/02 05:40:17;;;;;;;5.68;5.28;;;4.00;40.30;;;;;;5035279;28;20175;-54
2023/12/02 05:42:43;;;;;;;1.83;1.73;;;4.00;40.30;;;;;;5035225;28;20198;-49
2023/12/02 05:45:09;;;;;;;0.93;0.63;;;3.90;40.40;;;;;;5035034;28;20717;-55
2023/12/02 05:47:35;;;;;;;2.47;1.83;;;4.00;40.40;;;;;;5035095;28;20409;-57
2023/12/02 05:50:02;;;;;;;1.50;1.40;;;3.90;40.40;;;;;;5034889;28;20193;-49
2023/12/02 05:52:28;;;;;;;1.23;1.13;;;4.00;40.20;;;;;;5034798;28;20443;-51
2023/12/02 05:54:55;;;;;;;3.90;3.60;;;3.90;40.20;;;;;;5034762;28;20220;-55
2023/12/02 05:57:20;;;;;;;7.47;3.35;;;3.90;40.30;;;;;;5034792;28;20524;-50
2023/12/02 05:59:46;;;;;;;0.93;0.80;;;3.90;40.40;;;;;;5034900;28;20181;-50
2023/12/02 06:02:12;;;;;;;2.97;2.40;;;3.80;40.30;;;;;;5034637;28;20498;-56
2023/12/02 06:04:38;;;;;;;3.17;2.97;;;3.80;40.30;;;;;;5034667;28;20232;-50
2023/12/02 06:07:03;;;;;;;2.63;1.90;;;3.80;40.30;;;;;;5034569;28;20608;-52
2023/12/02 06:09:29;;;;;;;3.37;2.70;;;3.80;40.20;;;;;;5034625;28;20178;-56
2023/12/02 06:11:55;;;;;;;5.93;1.50;;;3.80;40.30;;;;;;5034465;28;20838;-49
2023/12/02 06:14:21;;;;;;;3.40;2.80;;;3.80;41.00;;;;;;5034562;28;20255;-53
2023/12/02 06:16:46;;;;;;;3.13;2.83;;;3.80;40.30;;;;;;5034413;28;20193;-55
2023/12/02 06:19:12;;;;;;;0.90;0.80;;;3.80;40.30;;;;;;5034426;28;20246;-49
2023/12/02 06:21:38;;;;;;;6.00;2.10;;;3.70;39.70;;;;;;5034262;28;20185;-52
2023/12/02 06:24:04;;;;;;;6.10;3.78;;;3.70;40.10;;;;;;5034200;28;20224;-51
2023/12/02 06:26:30;;;;;;;10.43;3.80;;;3.60;40.10;;;;;;5034176;28;20212;-52
2023/12/02 06:28:56;;;;;;;1.57;1.30;;;3.60;40.10;;;;;;5034495;28;20186;-55
2023/12/02 06:31:21;;;;;;;3.47;2.30;;;3.60;40.20;;;;;;5034259;28;20174;-52
2023/12/02 06:33:47;;;;;;;1.70;1.60;;;3.60;40.30;;;;;;5034046;28;20260;-51
2023/12/02 06:36:14;;;;;;;7.23;2.00;;;3.60;40.30;;;;;;5034000;28;20181;-53
2023/12/02 06:38:40;;;;;;;1.58;1.48;;;3.70;40.10;;;;;;5034151;28;20170;-56
2023/12/02 06:41:06;;;;;;;2.77;2.57;;;3.60;40.00;;;;;;5032949;28;20178;-51
2023/12/02 06:43:31;;;;;;;3.17;1.90;;;3.60;40.00;;;;;;5034035;28;20514;-53
2023/12/02 06:45:57;;;;;;;1.00;0.70;;;3.60;40.10;;;;;;5033775;28;20206;-54
2023/12/02 06:48:23;;;;;;;1.50;1.40;;;3.50;39.90;;;;;;5033952;28;20178;-50
2023/12/02 06:50:49;;;;;;;2.50;2.03;;;3.50;40.10;;;;;;5034122;28;20267;-53
2023/12/02 06:53:16;;;;;;;2.13;2.00;;;3.50;40.40;;;;;;5033603;28;20219;-54
2023/12/02 06:55:42;;;;;;;7.03;1.90;;;3.60;40.40;;;;;;5033649;28;20256;-51
2023/12/02 06:58:08;;;;;;;9.00;1.92;;;3.60;40.00;;;;;;5033763;28;20177;-54
2023/12/02 07:00:35;;;;;;;7.93;3.03;;;3.60;39.80;;;;;;5033608;28;20180;-55
2023/12/02 07:03:01;;;;;;;2.80;2.60;;;3.50;39.90;;;;;;5033497;28;20435;-51
2023/12/02 07:05:26;;;;;;;5.23;1.93;;;3.50;39.80;;;;;;5033517;28;20182;-49
2023/12/02 07:07:52;;;;;;;2.10;1.90;;;3.50;39.80;;;;;;5033661;28;20826;-56
2023/12/02 07:10:18;;;;;;;1.95;1.85;;;3.50;40.00;;;;;;5053347;28;20173;-55
2023/12/02 07:12:44;;;;;;;6.00;3.40;;;3.50;39.90;;;;;;5053335;28;20675;-51
2023/12/02 07:15:10;;;;;;;6.25;1.90;;;3.40;39.80;;;;;;5053079;28;20945;-53
2023/12/02 07:17:36;;;;;;;3.40;3.10;;;3.40;40.10;;;;;;5053363;28;20234;-56
2023/12/02 07:20:02;;;;;;;4.60;3.07;;;3.40;40.10;;;;;;5053256;28;20173;-52
2023/12/02 07:22:28;;;;;;;5.80;2.33;;;3.50;40.20;;;;;;5052993;28;20451;-50
2023/12/02 07:24:54;;;;;;;1.50;1.30;;;3.50;40.00;;;;;;5053062;28;20536;-51
2023/12/02 07:27:19;;;;;;;3.55;3.22;;;3.50;40.00;;;;;;5052988;28;20180;-56
2023/12/02 07:29:45;;;;;;;4.60;1.80;;;3.50;40.10;;;;;;5053084;28;20551;-52
2023/12/02 07:32:11;;;;;;;1.43;1.33;;;3.40;39.90;;;;;;5052769;28;20651;-52
2023/12/02 07:34:37;;;;;;;2.87;2.67;;;3.40;40.00;;;;;;5052924;28;20236;-57
2023/12/02 07:37:03;;;;;;;3.13;2.93;;;3.40;40.00;;;;;;5052686;28;20178;-50
2023/12/02 07:39:29;;;;;;;1.20;1.05;;;3.50;40.00;;;;;;5052818;28;20175;-58
2023/12/02 07:41:54;;;;;;;2.60;1.50;;;3.40;39.90;;;;;;5052641;28;20279;-51
2023/12/02 07:44:20;;;;;;;2.90;2.60;;;3.40;39.80;;;;;;5052766;28;20240;-50
2023/12/02 07:46:46;;;;;;;6.83;2.83;;;3.40;39.70;;;;;;5052649;28;20526;-53
2023/12/02 07:49:12;;;;;;;1.00;0.70;;;3.40;40.00;;;;;;5052796;28;20604;-57
2023/12/02 07:51:37;;;;;;;2.20;2.00;;;3.40;40.20;;;;;;5038255;28;20232;-51
2023/12/02 07:54:03;;;;;;;2.50;1.37;;;3.40;40.20;;;;;;5032493;28;20436;-51
2023/12/02 07:56:29;;;;;;;8.00;3.40;;;3.40;40.10;;;;;;5032500;28;20204;-57
2023/12/02 07:58:55;;;;;;;2.43;2.23;;;3.30;40.10;;;;;;5032710;28;21034;-50
2023/12/02 08:01:24;;;;;;;0.90;0.70;;;3.30;40.10;;;;;;5033051;28;20921;-51
2023/12/02 08:03:50;;;;;;;7.07;2.15;;;3.30;40.00;;;;;;5032478;28;20204;-58
2023/12/02 08:06:16;;;;;;;1.63;1.07;;;3.30;40.00;;;;;;5032273;28;20539;-51
2023/12/02 08:08:41;;;;;;;3.10;2.47;;;3.30;40.20;;;;;;5032409;28;20210;-51
2023/12/02 08:11:07;;;;;;;3.53;1.33;;;3.30;40.20;;;;;;5032286;28;20234;-54
2023/12/02 08:13:33;;;;;;;1.70;0.93;;;3.30;40.20;;;;;;5031066;28;20618;-55
2023/12/02 08:15:59;;;;;;;3.07;1.90;;;3.30;40.30;;;;;;5032205;28;20215;-51
2023/12/02 08:18:24;;;;;;;1.20;1.10;;;3.30;40.20;;;;;;5032282;28;20189;-53
2023/12/02 08:20:51;;;;;;;0.90;0.70;;;3.30;40.20;;;;;;5030814;28;20203;-55
2023/12/02 08:23:17;;;;;;;1.83;1.65;;;3.30;40.20;;;;;;5031996;28;20204;-50
2023/12/02 08:25:43;;;;;;;2.83;1.60;;;3.30;40.60;;;;;;5032107;28;20185;-51
2023/12/02 08:28:08;;;;;;;2.07;1.57;;;3.30;40.30;;;;;;5032208;28;20177;-54
2023/12/02 08:30:34;;;;;;;3.93;1.83;;;3.30;40.20;;;;;;5032109;28;20178;-52
2023/12/02 08:33:00;;;;;;;7.87;2.33;;;3.40;40.20;;;;;;5031830;28;20201;-51
2023/12/02 08:35:25;;;;;;;2.77;2.57;;;3.30;40.20;;;;;;5031810;28;20212;-56
2023/12/02 08:37:51;;;;;;;2.30;2.10;;;3.30;40.10;;;;;;5031949;28;20636;-57
2023/12/02 08:40:17;;;;;;;12.50;2.03;;;3.40;40.20;;;;;;5031860;28;20552;-50
2023/12/02 08:42:43;;;;;;;1.27;0.83;;;3.30;40.30;;;;;;5031848;28;20196;-56
2023/12/02 08:45:09;;;;;;;1.10;0.93;;;3.30;40.30;;;;;;5031701;28;20455;-57
2023/12/02 08:47:34;;;;;;;8.30;4.50;;;3.40;40.40;;;;;;5031865;28;20631;-49
2023/12/02 08:50:00;;;;;;;3.03;2.37;;;3.30;40.30;;;;;;5031843;28;20423;-58
2023/12/02 08:52:26;;;;;;;2.10;1.17;;;3.30;40.40;;;;;;5031644;28;20207;-56
2023/12/02 08:54:51;;;;;;;4.20;3.80;;;3.30;40.30;;;;;;5031862;28;20689;-49
2023/12/02 08:57:17;;;;;;;5.10;3.50;;;3.30;40.20;;;;;;5031521;28;20174;-58
2023/12/02 08:59:43;;;;;;;2.10;1.90;;;3.40;40.20;;;;;;5030517;28;20593;-57
2023/12/02 09:02:09;;;;;;;5.50;1.40;;;3.40;40.00;;;;;;5031487;28;20177;-49
2023/12/02 09:04:35;;;;;;;3.00;2.80;;;3.30;39.90;;;;;;5033590;28;20263;-57
2023/12/02 09:07:01;;;;;;;2.35;2.25;;;3.30;40.10;;;;;;5035568;28;20185;-56
2023/12/02 09:09:27;;;;;;;5.75;2.65;;;3.30;40.10;;;;;;5035872;28;20176;-51
2023/12/02 09:11:53;;;;;;;7.05;3.90;;;3.30;40.10;;;;;;5035535;28;20647;-51
2023/12/02 09:14:19;;;;;;;4.07;3.77;;;3.30;40.10;;;;;;5035602;28;20200;-57
2023/12/02 09:16:47;;;;;;;4.20;3.90;;;3.30;40.20;;;;;;5035509;28;20188;-51
2023/12/02 09:19:41;;;;;;;2.60;2.15;;;3.30;40.30;;;;;;5035627;28;20189;-50
2023/12/02 09:22:19;;;;;;;8.43;2.10;;;3.30;40.10;;;;;;5035268;28;20201;-50
2023/12/02 09:24:45;;;;;;;4.72;1.67;;;3.20;40.10;;;;;;5035576;28;20176;-53
2023/12/02 09:28:01;;;;;;;1.10;0.80;;;3.20;40.10;;;;;;5035192;28;20709;-55
2023/12/02 09:30:26;;;;;;;1.10;0.60;;;3.30;40.10;;;;;;5035454;28;20646;-51
2023/12/02 09:32:52;;;;;;;9.00;2.87;;;3.20;40.20;;;;;;5035244;28;20212;-52
2023/12/02 09:35:18;;;;;;;2.20;1.90;;;3.30;40.20;;;;;;5034917;28;20236;-50
2023/12/02 09:37:57;;;;;;;5.33;2.97;;;3.20;40.10;;;;;;5035278;28;20182;-51
2023/12/02 09:40:25;;;;;;;1.02;0.93;;;3.20;40.00;;;;;;5035157;28;20231;-58
2023/12/02 09:43:15;;;;;;;11.70;1.15;;;3.20;39.90;;;;;;5035068;28;20201;-49
2023/12/02 09:46:16;;;;;;;5.60;1.55;;;3.20;39.80;;;;;;5035004;28;20173;-57
2023/12/02 09:48:58;;;;;;;7.47;1.92;;;3.20;40.00;;;;;;5035122;28;20188;-51
2023/12/02 09:51:56;;;;;;;2.47;1.55;;;3.20;40.00;;;;;;5034920;28;20174;-48
2023/12/02 09:54:56;;;;;;;1.98;1.60;;;3.10;39.70;;;;;;5035192;28;20216;-55
2023/12/02 09:57:54;;;;;;;0.80;0.40;;;3.10;39.90;;;;;;5054787;28;20733;-57
2023/12/02 10:00:44;;;;;;;3.03;1.85;;;3.00;39.80;;;;;;5053996;28;20588;-50
2023/12/02 10:03:40;;;;;;;8.93;3.92;;;3.00;40.10;;;;;;5054532;28;20206;-56
2023/12/02 10:06:15;;;;;;;2.00;1.50;;;3.00;40.20;;;;;;5054324;28;20654;-49
2023/12/02 10:09:18;;;;;;;7.45;2.28;;;3.00;40.20;;;;;;5054614;28;20176;-57
2023/12/02 10:12:07;;;;;;;4.30;2.38;;;3.10;40.10;;;;;;5054476;28;20180;-59
2023/12/02 10:14:36;;;;;;;1.33;1.02;;;3.10;40.20;;;;;;5054413;28;20230;-56
2023/12/02 10:17:03;;;;;;;1.13;0.63;;;3.10;40.30;;;;;;5054316;28;20173;-57
2023/12/02 10:19:55;;;;;;;6.35;2.83;;;3.10;40.40;;;;;;5054576;28;20180;-51
2023/12/02 10:22:26;;;;;;;0.90;0.70;;;3.20;40.10;;;;;;5054195;28;20857;-58
2023/12/02 10:25:03;;;;;;;3.92;3.47;;;3.20;40.10;;;;;;5054346;28;20191;-51
2023/12/02 10:27:36;;;;;;;5.97;1.58;;;3.10;40.20;;;;;;5054274;28;20646;-56
2023/12/02 10:30:11;;;;;;;0.90;0.68;;;3.10;40.30;;;;;;5054307;28;20270;-50
2023/12/02 10:32:44;;;;;;;4.07;1.30;;;3.20;40.20;;;;;;5052853;28;20202;-53
2023/12/02 10:35:19;;;;;;;0.90;0.43;;;3.20;40.10;;;;;;5053869;28;20204;-54
2023/12/02 10:37:53;;;;;;;9.57;2.80;;;3.20;40.20;;;;;;5054150;28;20603;-52
2023/12/02 10:40:22;;;;;;;4.80;1.88;;;3.20;40.00;;;;;;5054037;28;20211;-54
2023/12/02 10:43:17;;;;;;;6.05;3.30;;;3.20;40.10;;;;;;5053933;28;20193;-50
2023/12/02 10:45:43;;;;;;;2.35;1.20;;;3.20;40.30;;;;;;5053752;28;20263;-51
2023/12/02 10:48:12;;;;;;;9.85;2.85;;;3.30;40.50;;;;;;5053793;28;20176;-51
2023/12/02 10:50:39;;;;;;;2.08;1.95;;;3.30;40.40;;;;;;5053777;28;20650;-57
2023/12/02 10:53:06;;;;;;;2.42;1.67;;;3.30;40.40;;;;;;5053626;28;20250;-50
2023/12/02 10:55:35;;;;;;;3.38;2.10;;;3.40;40.10;;;;;;5053509;28;20202;-53
2023/12/02 10:58:04;;;;;;;5.93;3.00;;;3.40;39.90;;;;;;5053688;28;20183;-54
2023/12/02 11:00:34;;;;;;;1.77;1.65;;;3.40;39.90;;;;;;5053655;28;20770;-53
2023/12/02 11:03:09;;;;;;;2.75;1.38;;;3.40;39.90;;;;;;5053399;28;20203;-49
2023/12/02 11:06:05;;;;;;;1.67;1.58;;;3.40;39.90;;;;;;5053469;28;20218;-57
2023/12/02 11:09:10;;;;;;;3.17;2.08;;;3.40;39.70;;;;;;5052251;28;20180;-54
2023/12/02 11:11:48;;;;;;;1.15;1.05;;;3.30;39.90;;;;;;5053350;28;20203;-50
2023/12/02 11:14:20;;;;;;;2.53;2.33;;;3.30;40.20;;;;;;5053311;28;20252;-56
2023/12/02 11:17:06;;;;;;;6.60;2.55;;;3.40;40.10;;;;;;5053320;28;20200;-50
2023/12/02 11:19:36;;;;;;;4.03;2.47;;;3.40;40.10;;;;;;5053290;28;20179;-50
2023/12/02 11:22:32;;;;;;;3.65;1.65;;;3.40;40.10;;;;;;5052923;28;20185;-51
2023/12/02 11:25:09;;;;;;;5.05;1.85;;;3.40;39.90;;;;;;5053277;28;20179;-51
2023/12/02 11:27:53;;;;;;;2.88;2.67;;;3.40;39.90;;;;;;5051331;28;20215;-56
2023/12/02 11:30:32;;;;;;;1.50;1.40;;;3.50;40.00;;;;;;5052959;28;20195;-50
2023/12/02 11:33:49;;;;;;;0.80;0.40;;;3.50;40.30;;;;;;5052979;28;20200;-56
2023/12/02 11:36:26;;;;;;;4.97;4.47;;;3.50;39.90;;;;;;5050229;28;20718;-58
2023/12/02 11:39:14;;;;;;;1.85;1.10;;;3.60;40.00;;;;;;5052750;28;20196;-58
2023/12/02 11:41:55;;;;;;;1.67;1.10;;;3.60;40.00;;;;;;5052815;28;20180;-53
2023/12/02 11:44:39;;;;;;;1.85;1.10;;;3.60;39.90;;;;;;5052827;28;20176;-58
2023/12/02 11:47:38;;;;;;;1.48;1.13;;;3.60;39.90;;;;;;5052554;28;20563;-51
2023/12/02 11:50:28;;;;;;;1.85;0.55;;;3.60;40.00;;;;;;5052617;28;20234;-57
2023/12/02 11:53:12;;;;;;;1.38;0.98;;;3.60;40.10;;;;;;5052648;28;20296;-57
2023/12/02 11:55:58;;;;;;;2.75;1.95;;;3.60;40.20;;;;;;5052464;28;20728;-58
2023/12/02 11:58:48;;;;;;;1.00;0.68;;;3.60;40.20;;;;;;5052620;28;20227;-51
2023/12/02 12:01:47;;;;;;;1.85;1.33;;;3.70;40.20;;;;;;5050999;28;20197;-48
2023/12/02 12:04:40;;;;;;;4.95;3.17;;;3.60;39.90;;;;;;5052435;28;20260;-58
2023/12/02 12:07:12;;;;;;;1.70;1.60;;;3.60;39.80;;;;;;5052091;28;20236;-55
2023/12/02 12:09:46;;;;;;;4.20;3.40;;;3.70;40.00;;;;;;5052394;28;20230;-51
2023/12/02 12:12:13;;;;;;;2.05;1.95;;;3.60;40.00;;;;;;5052130;28;20212;-53
2023/12/02 12:14:40;;;;;;;2.08;1.98;;;3.60;39.90;;;;;;5052230;28;20202;-56
2023/12/02 12:17:06;;;;;;;2.60;1.60;;;3.70;40.20;;;;;;5052012;28;20186;-51
2023/12/02 12:19:32;;;;;;;3.63;3.33;;;3.70;40.10;;;;;;5052203;28;20259;-53
2023/12/02 12:21:58;;;;;;;1.20;1.10;;;3.70;39.90;;;;;;5052058;28;20815;-55
2023/12/02 12:24:24;;;;;;;4.30;3.00;;;3.70;40.10;;;;;;5052039;28;20177;-48
2023/12/02 12:26:50;;;;;;;2.73;2.53;;;3.70;40.10;;;;;;5051937;28;20190;-52
2023/12/02 12:29:16;;;;;;;1.88;1.65;;;3.70;40.00;;;;;;5051994;28;20318;-59
2023/12/02 12:31:42;;;;;;;1.77;1.53;;;3.70;40.00;;;;;;5052006;28;20262;-51
2023/12/02 12:34:12;;;;;;;3.25;2.10;;;3.70;40.00;;;;;;5051667;28;20197;-58
2023/12/02 12:36:39;;;;;;;1.52;1.23;;;3.70;39.90;;;;;;5051712;28;20172;-58
2023/12/02 12:39:07;;;;;;;3.15;0.75;;;3.70;39.90;;;;;;5050974;28;20219;-53
2023/12/02 12:41:39;;;;;;;2.47;2.28;;;3.70;40.00;;;;;;5051894;28;20182;-58
2023/12/02 12:44:06;;;;;;;9.07;3.10;;;3.70;39.90;;;;;;5051742;28;20211;-51
2023/12/02 12:46:32;;;;;;;5.25;3.38;;;3.70;40.00;;;;;;5051499;28;20234;-49
2023/12/02 12:49:07;;;;;;;7.40;3.78;;;3.70;40.80;;;;;;5051851;28;20177;-58
2023/12/02 12:51:35;;;;;;;3.58;3.30;;;3.80;40.00;;;;;;5051850;28;20641;-57
2023/12/02 12:54:05;;;;;;;0.77;0.40;;;3.80;39.90;;;;;;5051480;28;20740;-49
2023/12/02 12:56:40;;;;;;;3.33;1.25;;;3.70;39.80;;;;;;5051595;28;20191;-52
2023/12/02 12:59:17;;;;;;;1.80;1.70;;;3.70;39.80;;;;;;5051590;28;20199;-49
2023/12/02 13:02:22;;;;;;;0.80;0.30;;;3.70;39.60;;;;;;5051572;28;20266;-56
2023/12/02 13:05:01;;;;;;;1.75;0.73;;;3.60;39.40;;;;;;5051689;28;20542;-56
2023/12/02 13:07:45;;;;;;;2.13;1.92;;;3.50;39.50;;;;;;5051410;28;20244;-54
2023/12/02 13:10:14;;;;;;;1.45;1.33;;;3.50;39.60;;;;;;5051570;28;20191;-57